createdAt,value
2019-01-05T00:00:05.671Z,99.90
2019-01-05T00:02:53.870Z,99.90
2019-01-05T00:05:28.322Z,99.90
2019-01-05T00:11:05.058Z,99.90
2019-01-05T00:13:36.554Z,99.90
2019-01-05T00:16:28.203Z,99.90
2019-01-05T00:19:06.237Z,99.90
2019-01-05T00:21:41.105Z,99.90
2019-01-05T00:24:29.148Z,99.90
2019-01-05T00:27:09.886Z,99.90
2019-01-05T00:29:43.457Z,99.90
2019-01-05T00:32:32.027Z,99.90
2019-01-05T00:35:07.117Z,99.90
2019-01-05T00:37:43.186Z,99.90
2019-01-05T00:40:27.466Z,99.90
2019-01-05T00:42:59.658Z,99.90
2019-01-05T00:45:37.264Z,99.90
2019-01-05T00:48:12.383Z,99.90
2019-01-05T00:50:55.023Z,99.90
2019-01-05T00:53:33.190Z,99.90
2019-01-05T00:56:20.703Z,99.90
2019-01-05T00:59:08.734Z,99.90
2019-01-05T01:01:52.467Z,99.90
2019-01-05T01:04:26.469Z,99.90
2019-01-05T01:07:16.875Z,99.90
2019-01-05T01:09:48.307Z,99.90
2019-01-05T01:12:25.590Z,99.90
2019-01-05T01:15:06.362Z,99.90
2019-01-05T01:17:47.446Z,99.90
2019-01-05T01:20:31.259Z,99.90
2019-01-05T01:23:17.903Z,99.90
2019-01-05T01:26:06.299Z,99.90
2019-01-05T01:28:43.806Z,99.90
2019-01-05T01:31:31.474Z,99.90
2019-01-05T01:34:12.222Z,99.90
2019-01-05T01:36:43.947Z,99.90
2019-01-05T01:39:36.347Z,99.90
2019-01-05T01:42:25.303Z,99.90
2019-01-05T01:44:57.394Z,99.90
2019-01-05T01:47:34.116Z,99.90
2019-01-05T01:50:22.791Z,99.90
2019-01-05T01:52:57.215Z,99.90
2019-01-05T01:55:37.675Z,99.90
2019-01-05T01:58:13.064Z,99.90
2019-01-05T02:00:48.050Z,99.90
2019-01-05T02:03:28.362Z,99.90
2019-01-05T02:06:01.624Z,99.90
2019-01-05T02:08:36.223Z,99.90
2019-01-05T02:11:22.923Z,99.90
2019-01-05T02:14:12.190Z,99.90
2019-01-05T02:17:04.168Z,99.90
2019-01-05T02:19:57.744Z,99.90
2019-01-05T02:22:50.722Z,99.90
2019-01-05T02:25:53.310Z,99.90
2019-01-05T02:28:33.342Z,99.90
2019-01-05T02:31:36.421Z,99.90
2019-01-05T02:34:29.122Z,99.90
2019-01-05T02:37:18.216Z,99.90
2019-01-05T02:40:15.212Z,99.90
2019-01-05T02:43:10.783Z,99.90
2019-01-05T02:46:10.406Z,99.90
2019-01-05T02:49:02.558Z,99.90
2019-01-05T02:52:03.663Z,99.90
2019-01-05T02:54:49.555Z,99.90
2019-01-05T02:57:43.278Z,99.90
2019-01-05T03:00:46.298Z,99.90
2019-01-05T03:03:48.143Z,99.90
2019-01-05T03:06:40.903Z,99.90
2019-01-05T03:09:45.204Z,99.90
2019-01-05T03:12:33.953Z,99.90
2019-01-05T03:15:37.051Z,99.90
2019-01-05T03:18:40.152Z,99.90
2019-01-05T03:21:42.998Z,99.90
2019-01-05T03:24:39.975Z,99.90
2019-01-05T03:27:31.958Z,99.90
2019-01-05T03:30:18.563Z,99.90
2019-01-05T03:33:04.755Z,99.90
2019-01-05T03:35:58.922Z,99.90
2019-01-05T03:38:56.919Z,99.90
2019-01-05T03:41:55.559Z,99.90
2019-01-05T03:44:50.971Z,99.90
2019-01-05T03:48:10.562Z,99.90
2019-01-05T03:51:26.021Z,99.90
2019-01-05T03:54:34.818Z,99.90
2019-01-05T03:57:21.217Z,99.90
2019-01-05T04:00:13.769Z,99.90
2019-01-05T04:03:06.464Z,99.90
2019-01-05T04:06:04.856Z,99.90
2019-01-05T04:08:53.590Z,99.90
2019-01-05T04:11:30.570Z,99.90
2019-01-05T04:14:29.045Z,99.90
2019-01-05T04:17:30.586Z,99.90
2019-01-05T04:20:17.172Z,99.90
2019-01-05T04:23:00.342Z,99.90
2019-01-05T04:25:47.063Z,99.90
2019-01-05T04:28:39.166Z,99.90
2019-01-05T04:31:39.211Z,99.90
2019-01-05T04:34:39.507Z,99.90
2019-01-05T04:37:39.666Z,99.90
2019-01-05T04:40:40.874Z,99.90
2019-01-05T04:43:46.906Z,99.90
2019-01-05T04:46:49.291Z,99.90
2019-01-05T04:49:58.283Z,99.90
2019-01-05T04:52:55.325Z,99.90
2019-01-05T04:55:35.683Z,99.90
2019-01-05T04:58:26.706Z,99.90
2019-01-05T05:01:16.467Z,99.90
2019-01-05T05:04:17.566Z,99.90
2019-01-05T05:07:10.462Z,99.90
2019-01-05T05:10:20.962Z,99.90
2019-01-05T05:13:13.101Z,99.90
2019-01-05T05:16:14.658Z,99.90
2019-01-05T05:19:25.485Z,99.90
2019-01-05T05:22:35.867Z,99.90
2019-01-05T05:25:46.016Z,99.90
2019-01-05T05:28:48.879Z,99.90
2019-01-05T05:32:01.021Z,99.90
2019-01-05T05:35:02.672Z,99.90
2019-01-05T05:37:49.569Z,99.90
2019-01-05T05:40:51.551Z,99.90
2019-01-05T05:43:48.197Z,99.90
2019-01-05T05:46:28.394Z,99.90
2019-01-05T05:49:31.636Z,99.90
2019-01-05T05:52:28.915Z,99.90
2019-01-05T05:55:38.198Z,99.90
2019-01-05T05:58:30.904Z,99.90
2019-01-05T06:01:23.302Z,99.90
2019-01-05T06:04:22.210Z,99.90
2019-01-05T06:07:17.503Z,99.90
2019-01-05T06:10:30.462Z,99.90
2019-01-05T06:13:48.735Z,99.90
2019-01-05T06:16:37.985Z,99.90
2019-01-05T06:19:44.159Z,99.90
2019-01-05T06:22:44.142Z,99.90
2019-01-05T06:25:39.722Z,99.90
2019-01-05T06:28:21.257Z,99.90
2019-01-05T06:31:16.539Z,99.90
2019-01-05T06:34:13.979Z,99.90
2019-01-05T06:37:05.033Z,99.90
2019-01-05T06:40:00.027Z,99.90
2019-01-05T06:42:55.782Z,99.90
2019-01-05T06:45:59.016Z,99.90
2019-01-05T06:48:53.161Z,99.90
2019-01-05T06:51:52.923Z,99.90
2019-01-05T06:54:33.080Z,99.90
2019-01-05T06:57:35.694Z,99.90
2019-01-05T07:00:35.658Z,99.90
2019-01-05T07:03:29.667Z,99.90
2019-01-05T07:06:07.063Z,99.90
2019-01-05T07:09:14.766Z,99.90
2019-01-05T07:12:24.263Z,99.90
2019-01-05T07:15:04.426Z,99.90
2019-01-05T07:18:04.464Z,99.90
2019-01-05T07:20:41.575Z,99.90
2019-01-05T07:23:39.542Z,99.90
2019-01-05T07:26:53.370Z,99.90
2019-01-05T07:30:06.834Z,99.90
2019-01-05T07:33:25.098Z,99.90
2019-01-05T07:36:30.914Z,99.90
2019-01-05T07:39:33.892Z,99.90
2019-01-05T07:42:34.924Z,99.90
2019-01-05T07:45:33.121Z,99.90
2019-01-05T07:48:40.523Z,99.90
2019-01-05T07:51:57.327Z,99.90
2019-01-05T07:55:12.673Z,99.90
2019-01-05T07:58:09.374Z,99.90
2019-01-05T08:00:55.533Z,99.90
2019-01-05T08:03:38.447Z,99.90
2019-01-05T08:06:48.480Z,99.90
2019-01-05T08:09:43.907Z,99.90
2019-01-05T08:12:54.550Z,99.90
2019-01-05T08:15:59.022Z,99.90
2019-01-05T08:19:23.437Z,99.90
2019-01-05T08:22:38.151Z,99.90
2019-01-05T08:25:37.711Z,99.90
2019-01-05T08:28:43.845Z,99.90
2019-01-05T08:31:36.320Z,99.90
2019-01-05T08:34:29.585Z,99.90
2019-01-05T08:37:38.377Z,99.90
2019-01-05T08:40:34.992Z,99.90
2019-01-05T08:43:57.994Z,99.90
2019-01-05T08:47:14.901Z,99.90
2019-01-05T08:50:16.253Z,99.90
2019-01-05T08:53:40.380Z,99.90
2019-01-05T08:56:23.691Z,99.90
2019-01-05T08:59:19.019Z,99.90
2019-01-05T09:02:34.837Z,99.90
2019-01-05T09:05:36.924Z,99.90
2019-01-05T09:08:32.730Z,99.90
2019-01-05T09:11:52.899Z,99.90
2019-01-05T09:14:56.266Z,99.90
2019-01-05T09:17:31.381Z,99.90
2019-01-05T09:20:41.698Z,99.90
2019-01-05T09:23:46.684Z,99.90
2019-01-05T09:26:59.670Z,99.90
2019-01-05T09:29:59.618Z,99.90
2019-01-05T09:32:43.671Z,99.90
2019-01-05T09:36:10.349Z,99.90
2019-01-05T09:39:09.151Z,99.90
2019-01-05T09:42:00.578Z,99.90
2019-01-05T09:45:03.640Z,99.90
2019-01-05T09:48:05.065Z,99.90
2019-01-05T09:51:14.278Z,99.90
2019-01-05T09:54:35.159Z,99.90
2019-01-05T09:57:22.891Z,99.90
2019-01-05T10:00:14.985Z,99.90
2019-01-05T10:03:24.519Z,99.90
2019-01-05T10:06:31.337Z,99.90
2019-01-05T10:09:35.074Z,99.90
2019-01-05T10:12:28.654Z,99.90
2019-01-05T10:15:44.885Z,99.90
2019-01-05T10:18:46.897Z,99.90
2019-01-05T10:21:46.427Z,99.90
2019-01-05T10:24:55.486Z,99.90
2019-01-05T10:27:50.247Z,99.90
2019-01-05T10:30:47.995Z,99.90
2019-01-05T10:33:41.277Z,99.90
2019-01-05T10:36:48.763Z,99.90
2019-01-05T10:39:48.719Z,99.90
2019-01-05T10:43:00.230Z,99.90
2019-01-05T10:45:53.478Z,99.90
2019-01-05T10:49:12.219Z,99.90
2019-01-05T10:52:12.270Z,99.90
2019-01-05T10:55:03.514Z,99.90
2019-01-05T10:58:14.472Z,99.90
2019-01-05T11:01:13.013Z,99.90
2019-01-05T11:04:15.481Z,99.90
2019-01-05T11:07:23.808Z,99.90
2019-01-05T11:10:26.144Z,99.90
2019-01-05T11:13:44.276Z,99.90
2019-01-05T11:16:35.678Z,99.90
2019-01-05T11:19:35.655Z,99.90
2019-01-05T11:22:29.677Z,99.90
2019-01-05T11:25:39.400Z,99.90
2019-01-05T11:28:39.428Z,99.90
2019-01-05T11:31:49.095Z,99.90
2019-01-05T11:35:07.870Z,99.90
2019-01-05T11:38:10.598Z,99.90
2019-01-05T11:41:08.411Z,99.90
2019-01-05T11:44:19.104Z,99.90
2019-01-05T11:47:01.116Z,99.90
2019-01-05T11:50:10.878Z,99.90
2019-01-05T11:53:15.886Z,99.90
2019-01-05T11:56:25.819Z,99.90
2019-01-05T11:59:12.568Z,99.90
2019-01-05T12:02:24.739Z,99.90
2019-01-05T12:05:17.123Z,99.90
2019-01-05T12:08:08.085Z,99.90
2019-01-05T12:11:08.271Z,99.90
2019-01-05T12:13:53.022Z,99.90
2019-01-05T12:16:40.889Z,99.90
2019-01-05T12:19:42.596Z,99.90
2019-01-05T12:22:50.719Z,99.90
2019-01-05T12:25:48.373Z,99.90
2019-01-05T12:28:34.839Z,99.90
2019-01-05T12:31:32.020Z,99.90
2019-01-05T12:34:21.399Z,99.90
2019-01-05T12:37:21.340Z,99.90
2019-01-05T12:40:21.478Z,99.90
2019-01-05T12:43:18.407Z,99.90
2019-01-05T12:46:33.772Z,99.90
2019-01-05T12:49:27.156Z,99.90
2019-01-05T12:52:25.570Z,99.90
2019-01-05T12:55:22.799Z,99.90
2019-01-05T12:58:18.416Z,99.90
2019-01-05T13:01:36.305Z,99.90
2019-01-05T13:04:27.309Z,99.90
2019-01-05T13:07:21.033Z,99.90
2019-01-05T13:10:27.094Z,99.90
2019-01-05T13:13:31.679Z,99.90
2019-01-05T13:16:45.465Z,99.90
2019-01-05T13:19:53.697Z,99.90
2019-01-05T13:22:47.599Z,99.90
2019-01-05T13:25:56.616Z,99.90
2019-01-05T13:28:51.911Z,99.90
2019-01-05T13:31:38.378Z,99.90
2019-01-05T13:34:45.519Z,99.90
2019-01-05T13:37:57.646Z,99.90
2019-01-05T13:40:47.525Z,99.90
2019-01-05T13:43:44.364Z,99.90
2019-01-05T13:46:44.439Z,99.90
2019-01-05T13:50:06.684Z,99.90
2019-01-05T13:52:58.927Z,99.90
2019-01-05T13:55:57.246Z,99.90
2019-01-05T13:58:28.769Z,99.90
2019-01-05T14:01:16.697Z,99.90
2019-01-05T14:04:00.715Z,99.90
2019-01-05T14:06:46.439Z,99.90
2019-01-05T14:09:20.728Z,99.90
2019-01-05T14:12:10.254Z,99.90
2019-01-05T14:14:51.832Z,99.90
2019-01-05T14:17:40.430Z,99.90
2019-01-05T14:20:33.955Z,99.90
2019-01-05T14:23:08.401Z,99.90
2019-01-05T14:25:45.876Z,99.90
2019-01-05T14:28:32.430Z,99.90
2019-01-05T14:31:07.013Z,99.90
2019-01-05T14:33:44.172Z,99.90
2019-01-05T14:36:21.612Z,99.90
2019-01-05T14:39:09.693Z,99.90
2019-01-05T14:41:57.697Z,99.90
2019-01-05T14:44:47.367Z,99.90
2019-01-05T14:47:35.044Z,99.90
2019-01-05T14:50:26.207Z,99.90
2019-01-05T14:52:57.691Z,99.90
2019-01-05T14:55:35.167Z,99.90
2019-01-05T14:58:06.801Z,99.90
2019-01-05T15:00:40.702Z,99.90
2019-01-05T15:03:12.205Z,99.90
2019-01-05T15:05:55.336Z,99.90
2019-01-05T15:08:35.996Z,99.90
2019-01-05T15:11:23.556Z,99.90
2019-01-05T15:14:20.347Z,99.90
2019-01-05T15:16:51.759Z,99.90
2019-01-05T15:19:32.518Z,99.90
2019-01-05T15:22:12.998Z,99.90
2019-01-05T15:24:48.718Z,99.90
2019-01-05T15:27:29.961Z,99.90
2019-01-05T15:30:05.183Z,99.90
2019-01-05T15:33:13.636Z,99.90
2019-01-05T15:35:48.206Z,99.90
2019-01-05T15:38:31.399Z,99.90
2019-01-05T15:41:12.113Z,99.90
2019-01-05T15:43:55.906Z,99.90
2019-01-05T15:46:27.540Z,99.90
2019-01-05T15:48:59.934Z,99.90
2019-01-05T15:51:32.088Z,99.90
2019-01-05T15:57:00.010Z,99.30
2019-01-05T15:59:31.745Z,99.30
2019-01-05T16:02:19.705Z,99.30
2019-01-05T16:04:51.283Z,99.00
2019-01-05T16:07:39.852Z,99.50
2019-01-05T16:10:18.774Z,99.10
2019-01-05T16:12:57.714Z,99.30
2019-01-05T16:15:41.088Z,99.70
2019-01-05T16:18:29.419Z,99.30
2019-01-05T16:21:19.449Z,99.70
2019-01-05T16:23:52.199Z,99.90
2019-01-05T16:26:27.465Z,99.90
2019-01-05T16:29:07.201Z,99.90
2019-01-05T16:31:46.485Z,99.90
2019-01-05T16:34:35.219Z,99.90
2019-01-05T16:37:23.094Z,99.90
2019-01-05T16:39:57.880Z,99.90
2019-01-05T16:42:35.644Z,99.90
2019-01-05T16:45:25.718Z,99.90
2019-01-05T16:48:15.639Z,99.90
2019-01-05T16:50:49.902Z,99.90
2019-01-05T16:53:36.175Z,99.90
2019-01-05T16:56:13.864Z,99.90
2019-01-05T16:58:57.363Z,99.90
2019-01-05T17:01:44.752Z,99.90
2019-01-05T17:04:18.807Z,99.90
2019-01-05T17:06:50.314Z,99.90
2019-01-05T17:09:21.725Z,99.90
2019-01-05T17:11:55.828Z,99.90
2019-01-05T17:14:45.287Z,99.90
2019-01-05T17:17:16.849Z,99.90
2019-01-05T17:20:06.344Z,99.90
2019-01-05T17:22:40.685Z,99.90
2019-01-05T17:25:18.363Z,99.90
2019-01-05T17:28:06.910Z,99.90
2019-01-05T17:30:56.374Z,99.90
2019-01-05T17:33:45.956Z,99.90
2019-01-05T17:36:17.445Z,99.90
2019-01-05T17:38:50.251Z,99.90
2019-01-05T17:41:38.347Z,99.90
2019-01-05T17:44:09.872Z,99.90
2019-01-05T17:46:41.401Z,99.90
2019-01-05T17:49:29.158Z,99.90
2019-01-05T17:52:15.595Z,99.90
2019-01-05T17:54:58.970Z,99.90
2019-01-05T17:57:30.530Z,99.90
2019-01-05T18:00:04.728Z,99.90
2019-01-05T18:02:42.602Z,99.90
2019-01-05T18:05:19.847Z,99.90
2019-01-05T18:08:03.288Z,99.90
2019-01-05T18:10:54.128Z,99.90
2019-01-05T18:13:28.336Z,99.90
2019-01-05T18:16:05.818Z,99.90
2019-01-05T18:18:46.278Z,99.90
2019-01-05T18:21:17.723Z,99.90
2019-01-05T18:23:52.049Z,99.90
2019-01-05T18:26:32.711Z,99.90
2019-01-05T18:29:16.161Z,99.90
2019-01-05T18:32:04.442Z,99.90
2019-01-05T18:34:36.004Z,99.90
2019-01-05T18:37:07.690Z,99.90
2019-01-05T18:39:45.110Z,99.90
2019-01-05T18:42:19.863Z,99.90
2019-01-05T18:45:09.109Z,99.90
2019-01-05T18:48:00.774Z,99.90
2019-01-05T18:50:47.891Z,99.90
2019-01-05T18:53:37.877Z,99.90
2019-01-05T18:56:14.299Z,99.90
2019-01-05T18:58:53.033Z,99.90
2019-01-05T19:01:42.314Z,99.90
2019-01-05T19:04:20.926Z,99.90
2019-01-05T19:07:05.098Z,99.90
2019-01-05T19:09:42.547Z,99.90
2019-01-05T19:12:15.032Z,99.40
2019-01-05T19:14:47.088Z,99.30
2019-01-05T19:17:35.841Z,99.30
2019-01-05T19:20:18.373Z,98.60
2019-01-05T19:22:53.100Z,98.70
2019-01-05T19:25:27.396Z,98.70
2019-01-05T19:28:10.852Z,97.90
2019-01-05T19:30:50.908Z,98.00
2019-01-05T19:33:49.972Z,97.50
2019-01-05T19:36:40.118Z,97.50
2019-01-05T19:39:41.928Z,97.50
2019-01-05T19:42:31.157Z,96.50
2019-01-05T19:45:08.854Z,95.80
2019-01-05T19:47:45.875Z,96.00
2019-01-05T19:50:38.046Z,96.00
2019-01-05T19:53:14.198Z,95.90
2019-01-05T19:56:00.767Z,95.90
2019-01-05T19:58:49.022Z,95.80
2019-01-05T20:01:20.770Z,95.70
2019-01-05T20:03:58.562Z,96.10
2019-01-05T20:06:36.620Z,96.10
2019-01-05T20:09:12.184Z,96.10
2019-01-05T20:11:53.101Z,96.40
2019-01-05T20:14:24.974Z,96.30
2019-01-05T20:17:08.645Z,96.50
2019-01-05T20:19:40.619Z,96.80
2019-01-05T20:22:19.344Z,96.80
2019-01-05T20:24:51.960Z,97.30
2019-01-05T20:27:42.573Z,97.30
2019-01-05T20:30:30.609Z,97.40
2019-01-05T20:33:05.305Z,97.90
2019-01-05T20:35:56.053Z,98.30
2019-01-05T20:38:32.123Z,98.70
2019-01-05T20:41:09.809Z,99.30
2019-01-05T20:43:51.774Z,99.60
2019-01-05T20:46:38.888Z,99.30
2019-01-05T20:49:29.797Z,98.70
2019-01-05T20:52:06.404Z,98.40
2019-01-05T20:54:57.025Z,98.20
2019-01-05T20:57:34.772Z,98.30
2019-01-05T21:00:25.578Z,98.40
2019-01-05T21:03:00.812Z,98.00
2019-01-05T21:05:36.440Z,98.10
2019-01-05T21:08:17.360Z,97.40
2019-01-05T21:10:51.802Z,97.00
2019-01-05T21:13:35.936Z,97.00
2019-01-05T21:16:28.183Z,96.70
2019-01-05T21:19:04.566Z,96.70
2019-01-05T21:21:54.764Z,96.80
2019-01-05T21:24:35.438Z,96.80
2019-01-05T21:27:10.076Z,96.70
2019-01-05T21:29:44.927Z,96.90
2019-01-05T21:32:26.692Z,97.50
2019-01-05T21:35:16.696Z,98.00
2019-01-05T21:38:03.330Z,98.70
2019-01-05T21:40:47.515Z,99.90
2019-01-05T21:43:36.150Z,99.90
2019-01-05T21:46:33.826Z,99.90
2019-01-05T21:49:37.136Z,99.90
2019-01-05T21:52:22.836Z,99.90
2019-01-05T21:55:23.339Z,99.90
2019-01-05T21:58:12.546Z,99.90
2019-01-05T22:00:50.405Z,99.90
2019-01-05T22:03:28.222Z,99.90
2019-01-05T22:06:12.193Z,99.90
2019-01-05T22:08:52.716Z,99.90
2019-01-05T22:11:24.349Z,99.90
2019-01-05T22:13:58.254Z,99.90
2019-01-05T22:16:35.384Z,99.90
2019-01-05T22:19:21.867Z,99.90
2019-01-05T22:21:57.194Z,99.80
2019-01-05T22:24:38.143Z,99.40
2019-01-05T22:27:28.153Z,99.10
2019-01-05T22:30:09.444Z,99.30
2019-01-05T22:32:50.224Z,99.50
2019-01-05T22:35:39.194Z,98.90
2019-01-05T22:38:21.224Z,98.70
2019-01-05T22:40:53.071Z,98.60
2019-01-05T22:43:41.218Z,98.30
2019-01-05T22:46:17.350Z,98.30
2019-01-05T22:49:00.978Z,98.10
2019-01-05T22:51:38.198Z,98.20
2019-01-05T22:54:09.527Z,98.30
2019-01-05T22:56:57.340Z,98.10
2019-01-05T22:59:34.513Z,98.00
2019-01-05T23:02:22.164Z,97.70
2019-01-05T23:05:03.150Z,97.50
2019-01-05T23:07:34.834Z,97.40
2019-01-05T23:10:19.690Z,97.40
2019-01-05T23:13:10.856Z,97.50
2019-01-05T23:15:59.484Z,97.40
2019-01-05T23:18:41.763Z,97.30
2019-01-05T23:21:19.962Z,97.40
2019-01-05T23:24:05.621Z,97.20
2019-01-05T23:26:43.863Z,97.10
2019-01-05T23:29:30.868Z,96.80
2019-01-05T23:32:06.974Z,97.00
2019-01-05T23:34:57.520Z,96.80
2019-01-05T23:37:30.610Z,97.00
2019-01-05T23:40:03.178Z,97.20
2019-01-05T23:42:38.654Z,97.10
2019-01-05T23:45:31.195Z,97.00
2019-01-05T23:48:11.246Z,97.40
2019-01-05T23:50:44.278Z,97.50
2019-01-05T23:53:40.202Z,97.30
2019-01-05T23:56:30.852Z,97.70
2019-01-05T23:59:12.229Z,97.60
